Canadian's Hourly Summary for Wednesday, March 15, 2017
Hour Temp
(f)
RH
(%)
Solar Rad.
(MJ/m2)
Rainfall
(in)
Wind
(mph)
3/15/2017 12:00 AM 39 55 0 0 7.9
3/15/2017 1:00 AM 36 57 0 0 7.07
3/15/2017 2:00 AM 34 55 0 0 5.41
3/15/2017 3:00 AM 31 59 0 0 1.22
3/15/2017 4:00 AM 30 63 0 0 0.64
3/15/2017 5:00 AM 29 63 0 0 0.03
3/15/2017 6:00 AM 27 70 0 0 0
3/15/2017 7:00 AM 26 75 0 0 0.21
3/15/2017 8:00 AM 25 76 0 0 0.04
3/15/2017 9:00 AM 29 60 0.25 0 0.37
3/15/2017 10:00 AM 33 53 0.72 0 2.94
3/15/2017 11:00 AM 40 44 1.52 0 4.79
3/15/2017 12:00 PM 45 36 2 0 6.29
3/15/2017 1:00 PM 50 32 2.53 0 8.32
3/15/2017 2:00 PM 54 31 2.71 0 9.51
3/15/2017 3:00 PM 58 28 2.71 0 9.52
3/15/2017 4:00 PM 61 28 2.49 0 9.62
3/15/2017 5:00 PM 63 27 2.07 0 8.47
3/15/2017 6:00 PM 65 27 1.5 0 9.1
3/15/2017 7:00 PM 64 28 0.77 0 8.18
3/15/2017 8:00 PM 59 31 0.09 0 4.77
3/15/2017 9:00 PM 52 40 0 0 2.66
3/15/2017 10:00 PM 51 45 0 0 2.21
3/15/2017 11:00 PM 47 52 0 0 3.51
Data Summary 43 47 19.36 0.00 4.70